sensor_id;sensor_type;location;lat;lon;timestamp;temperature;humidity
13223;DHT22;6676;45.192;5.722;2022-12-24T00:00:56;11.40;99.90
13223;DHT22;6676;45.192;5.722;2022-12-24T00:03:48;11.40;99.90
13223;DHT22;6676;45.192;5.722;2022-12-24T00:06:40;11.40;99.90
13223;DHT22;6676;45.192;5.722;2022-12-24T00:09:30;11.40;99.90
13223;DHT22;6676;45.192;5.722;2022-12-24T00:12:22;11.40;99.90
13223;DHT22;6676;45.192;5.722;2022-12-24T00:15:14;11.30;99.90
13223;DHT22;6676;45.192;5.722;2022-12-24T00:20:47;11.30;99.90
13223;DHT22;6676;45.192;5.722;2022-12-24T00:26:19;11.20;99.90
13223;DHT22;6676;45.192;5.722;2022-12-24T00:29:11;11.30;99.90
13223;DHT22;6676;45.192;5.722;2022-12-24T00:32:03;11.30;99.90
13223;DHT22;6676;45.192;5.722;2022-12-24T00:34:57;11.30;99.90
13223;DHT22;6676;45.192;5.722;2022-12-24T00:40:30;11.30;99.90
13223;DHT22;6676;45.192;5.722;2022-12-24T00:43:21;11.30;99.90
13223;DHT22;6676;45.192;5.722;2022-12-24T00:46:15;11.30;99.90
13223;DHT22;6676;45.192;5.722;2022-12-24T00:51:49;11.30;99.90
13223;DHT22;6676;45.192;5.722;2022-12-24T00:54:41;11.30;99.90
13223;DHT22;6676;45.192;5.722;2022-12-24T00:57:33;11.20;99.90
13223;DHT22;6676;45.192;5.722;2022-12-24T01:00:27;11.10;99.90
13223;DHT22;6676;45.192;5.722;2022-12-24T01:03:18;11.10;99.90
13223;DHT22;6676;45.192;5.722;2022-12-24T01:08:51;11.20;99.90
13223;DHT22;6676;45.192;5.722;2022-12-24T01:14:53;11.30;99.90
13223;DHT22;6676;45.192;5.722;2022-12-24T01:20:31;11.30;99.90
13223;DHT22;6676;45.192;5.722;2022-12-24T01:23:22;11.30;99.90
13223;DHT22;6676;45.192;5.722;2022-12-24T01:26:14;11.30;99.90
13223;DHT22;6676;45.192;5.722;2022-12-24T01:29:06;11.30;99.90
13223;DHT22;6676;45.192;5.722;2022-12-24T01:34:45;11.30;99.90
13223;DHT22;6676;45.192;5.722;2022-12-24T01:37:36;11.30;99.90
13223;DHT22;6676;45.192;5.722;2022-12-24T01:40:28;11.40;99.90
13223;DHT22;6676;45.192;5.722;2022-12-24T01:46:18;11.30;99.90
13223;DHT22;6676;45.192;5.722;2022-12-24T01:51:51;11.30;99.90
13223;DHT22;6676;45.192;5.722;2022-12-24T01:54:46;11.30;99.90
13223;DHT22;6676;45.192;5.722;2022-12-24T02:00:18;11.20;99.90
13223;DHT22;6676;45.192;5.722;2022-12-24T02:05:50;11.30;99.90
13223;DHT22;6676;45.192;5.722;2022-12-24T02:08:43;11.30;99.90
13223;DHT22;6676;45.192;5.722;2022-12-24T02:14:14;11.30;99.90
13223;DHT22;6676;45.192;5.722;2022-12-24T02:20:33;11.30;99.90
13223;DHT22;6676;45.192;5.722;2022-12-24T02:23:39;11.20;99.90
13223;DHT22;6676;45.192;5.722;2022-12-24T02:26:41;11.20;99.90
13223;DHT22;6676;45.192;5.722;2022-12-24T02:35:54;11.50;99.90
13223;DHT22;6676;45.192;5.722;2022-12-24T02:38:51;11.40;99.90
13223;DHT22;6676;45.192;5.722;2022-12-24T02:44:31;11.40;99.90
13223;DHT22;6676;45.192;5.722;2022-12-24T02:50:08;11.30;99.90
13223;DHT22;6676;45.192;5.722;2022-12-24T02:55:43;11.30;99.90
13223;DHT22;6676;45.192;5.722;2022-12-24T03:01:22;11.30;99.90
13223;DHT22;6676;45.192;5.722;2022-12-24T03:06:55;11.20;99.90
13223;DHT22;6676;45.192;5.722;2022-12-24T03:09:57;11.20;99.90
13223;DHT22;6676;45.192;5.722;2022-12-24T03:12:50;11.20;99.90
13223;DHT22;6676;45.192;5.722;2022-12-24T03:15:43;11.20;99.90
13223;DHT22;6676;45.192;5.722;2022-12-24T03:18:38;11.20;99.90
13223;DHT22;6676;45.192;5.722;2022-12-24T03:21:32;11.30;99.90
13223;DHT22;6676;45.192;5.722;2022-12-24T03:29:55;11.30;99.90
13223;DHT22;6676;45.192;5.722;2022-12-24T03:35:27;11.40;99.90
13223;DHT22;6676;45.192;5.722;2022-12-24T03:38:18;11.40;99.90
13223;DHT22;6676;45.192;5.722;2022-12-24T03:41:10;11.40;99.90
13223;DHT22;6676;45.192;5.722;2022-12-24T03:44:02;11.50;99.90
13223;DHT22;6676;45.192;5.722;2022-12-24T03:49:44;11.40;99.90
13223;DHT22;6676;45.192;5.722;2022-12-24T03:52:35;11.40;99.90
13223;DHT22;6676;45.192;5.722;2022-12-24T03:55:26;11.40;99.90
13223;DHT22;6676;45.192;5.722;2022-12-24T03:58:18;11.40;99.90
13223;DHT22;6676;45.192;5.722;2022-12-24T04:01:10;11.40;99.90
13223;DHT22;6676;45.192;5.722;2022-12-24T04:04:01;11.40;99.90
13223;DHT22;6676;45.192;5.722;2022-12-24T04:14:57;11.40;99.90
13223;DHT22;6676;45.192;5.722;2022-12-24T04:17:51;11.40;99.90
13223;DHT22;6676;45.192;5.722;2022-12-24T04:20:42;11.40;99.90
13223;DHT22;6676;45.192;5.722;2022-12-24T04:23:36;11.40;99.90
13223;DHT22;6676;45.192;5.722;2022-12-24T04:26:27;11.40;99.90
13223;DHT22;6676;45.192;5.722;2022-12-24T04:29:19;11.40;99.90
13223;DHT22;6676;45.192;5.722;2022-12-24T04:32:11;11.40;99.90
13223;DHT22;6676;45.192;5.722;2022-12-24T04:35:03;11.40;99.90
13223;DHT22;6676;45.192;5.722;2022-12-24T04:37:54;11.40;99.90
13223;DHT22;6676;45.192;5.722;2022-12-24T04:40:46;11.40;99.90
13223;DHT22;6676;45.192;5.722;2022-12-24T04:43:37;11.40;99.90
13223;DHT22;6676;45.192;5.722;2022-12-24T04:46:29;11.40;99.90
13223;DHT22;6676;45.192;5.722;2022-12-24T04:49:21;11.50;99.90
13223;DHT22;6676;45.192;5.722;2022-12-24T04:54:55;11.50;99.90
13223;DHT22;6676;45.192;5.722;2022-12-24T04:57:46;11.50;99.90
13223;DHT22;6676;45.192;5.722;2022-12-24T05:00:39;11.50;99.90
13223;DHT22;6676;45.192;5.722;2022-12-24T05:06:30;11.60;99.90
13223;DHT22;6676;45.192;5.722;2022-12-24T05:09:22;11.60;99.90
13223;DHT22;6676;45.192;5.722;2022-12-24T05:12:13;11.50;99.90
13223;DHT22;6676;45.192;5.722;2022-12-24T05:15:06;11.50;99.90
13223;DHT22;6676;45.192;5.722;2022-12-24T05:17:58;11.60;99.90
13223;DHT22;6676;45.192;5.722;2022-12-24T05:20:50;11.60;99.90
13223;DHT22;6676;45.192;5.722;2022-12-24T05:23:41;11.50;99.90
13223;DHT22;6676;45.192;5.722;2022-12-24T05:29:30;11.60;99.90
13223;DHT22;6676;45.192;5.722;2022-12-24T05:37:48;11.50;99.90
13223;DHT22;6676;45.192;5.722;2022-12-24T05:40:39;11.50;99.90
13223;DHT22;6676;45.192;5.722;2022-12-24T05:43:31;11.50;99.90
13223;DHT22;6676;45.192;5.722;2022-12-24T05:46:23;11.60;99.90
13223;DHT22;6676;45.192;5.722;2022-12-24T05:49:15;11.60;99.90
13223;DHT22;6676;45.192;5.722;2022-12-24T05:54:46;11.60;99.90
13223;DHT22;6676;45.192;5.722;2022-12-24T05:57:40;11.60;99.90
13223;DHT22;6676;45.192;5.722;2022-12-24T06:00:32;11.70;99.90
13223;DHT22;6676;45.192;5.722;2022-12-24T06:03:23;11.70;99.90
13223;DHT22;6676;45.192;5.722;2022-12-24T06:06:17;11.70;99.90
13223;DHT22;6676;45.192;5.722;2022-12-24T06:11:50;11.70;99.90
13223;DHT22;6676;45.192;5.722;2022-12-24T06:14:41;11.70;99.90
13223;DHT22;6676;45.192;5.722;2022-12-24T06:17:32;11.60;99.90
13223;DHT22;6676;45.192;5.722;2022-12-24T06:20:23;11.50;99.90
13223;DHT22;6676;45.192;5.722;2022-12-24T06:23:15;11.50;99.90
13223;DHT22;6676;45.192;5.722;2022-12-24T06:26:08;11.50;99.90
13223;DHT22;6676;45.192;5.722;2022-12-24T06:29:00;11.50;99.90
13223;DHT22;6676;45.192;5.722;2022-12-24T06:34:32;11.50;99.90
13223;DHT22;6676;45.192;5.722;2022-12-24T06:40:04;11.40;99.90
13223;DHT22;6676;45.192;5.722;2022-12-24T06:42:55;11.40;99.90
13223;DHT22;6676;45.192;5.722;2022-12-24T06:45:48;11.40;99.90
13223;DHT22;6676;45.192;5.722;2022-12-24T06:48:42;11.40;99.90
13223;DHT22;6676;45.192;5.722;2022-12-24T06:54:19;11.50;99.90
13223;DHT22;6676;45.192;5.722;2022-12-24T06:57:11;11.50;99.90
13223;DHT22;6676;45.192;5.722;2022-12-24T07:00:04;11.40;99.90
13223;DHT22;6676;45.192;5.722;2022-12-24T07:02:56;11.40;99.90
13223;DHT22;6676;45.192;5.722;2022-12-24T07:05:47;11.40;99.90
13223;DHT22;6676;45.192;5.722;2022-12-24T07:08:39;11.40;99.90
13223;DHT22;6676;45.192;5.722;2022-12-24T07:11:30;11.40;99.90
13223;DHT22;6676;45.192;5.722;2022-12-24T07:14:21;11.40;99.90
13223;DHT22;6676;45.192;5.722;2022-12-24T07:17:13;11.40;99.90
13223;DHT22;6676;45.192;5.722;2022-12-24T07:20:09;11.50;99.90
13223;DHT22;6676;45.192;5.722;2022-12-24T07:25:42;11.50;99.90
13223;DHT22;6676;45.192;5.722;2022-12-24T07:28:34;11.50;99.90
13223;DHT22;6676;45.192;5.722;2022-12-24T07:31:26;11.60;99.90
13223;DHT22;6676;45.192;5.722;2022-12-24T07:34:17;11.50;99.90
13223;DHT22;6676;45.192;5.722;2022-12-24T07:37:08;11.50;99.90
13223;DHT22;6676;45.192;5.722;2022-12-24T07:40:00;11.50;99.90
13223;DHT22;6676;45.192;5.722;2022-12-24T07:42:51;11.50;99.90
13223;DHT22;6676;45.192;5.722;2022-12-24T07:45:43;11.50;99.90
13223;DHT22;6676;45.192;5.722;2022-12-24T07:48:35;11.50;99.90
13223;DHT22;6676;45.192;5.722;2022-12-24T07:51:28;11.50;99.90
13223;DHT22;6676;45.192;5.722;2022-12-24T07:54:19;11.50;99.90
13223;DHT22;6676;45.192;5.722;2022-12-24T07:57:10;11.50;99.90
13223;DHT22;6676;45.192;5.722;2022-12-24T08:00:03;11.50;99.90
13223;DHT22;6676;45.192;5.722;2022-12-24T08:02:57;11.50;99.90
13223;DHT22;6676;45.192;5.722;2022-12-24T08:05:49;11.50;99.90
13223;DHT22;6676;45.192;5.722;2022-12-24T08:08:42;11.50;99.90
13223;DHT22;6676;45.192;5.722;2022-12-24T08:14:37;11.60;99.90
13223;DHT22;6676;45.192;5.722;2022-12-24T08:17:28;11.50;99.90
13223;DHT22;6676;45.192;5.722;2022-12-24T08:20:21;11.50;99.90
13223;DHT22;6676;45.192;5.722;2022-12-24T08:23:12;11.60;99.90
13223;DHT22;6676;45.192;5.722;2022-12-24T08:26:06;11.70;99.90
13223;DHT22;6676;45.192;5.722;2022-12-24T08:34:16;11.90;99.90
13223;DHT22;6676;45.192;5.722;2022-12-24T08:39:47;11.90;99.90
13223;DHT22;6676;45.192;5.722;2022-12-24T08:42:38;11.90;99.90
13223;DHT22;6676;45.192;5.722;2022-12-24T08:45:30;11.90;99.90
13223;DHT22;6676;45.192;5.722;2022-12-24T08:48:24;11.90;99.90
13223;DHT22;6676;45.192;5.722;2022-12-24T08:51:15;11.90;99.90
13223;DHT22;6676;45.192;5.722;2022-12-24T08:54:08;12.00;99.90
13223;DHT22;6676;45.192;5.722;2022-12-24T08:59:38;12.00;99.90
13223;DHT22;6676;45.192;5.722;2022-12-24T09:02:30;12.00;99.90
13223;DHT22;6676;45.192;5.722;2022-12-24T09:05:22;12.00;99.90
13223;DHT22;6676;45.192;5.722;2022-12-24T09:08:14;12.00;99.90
13223;DHT22;6676;45.192;5.722;2022-12-24T09:11:08;12.10;99.90
13223;DHT22;6676;45.192;5.722;2022-12-24T09:13:59;12.10;99.90
13223;DHT22;6676;45.192;5.722;2022-12-24T09:16:50;12.20;99.90
13223;DHT22;6676;45.192;5.722;2022-12-24T09:19:42;12.20;99.90
13223;DHT22;6676;45.192;5.722;2022-12-24T09:22:37;12.30;99.90
13223;DHT22;6676;45.192;5.722;2022-12-24T09:25:27;12.30;99.90
13223;DHT22;6676;45.192;5.722;2022-12-24T09:28:18;12.40;99.90
13223;DHT22;6676;45.192;5.722;2022-12-24T09:31:11;12.40;99.90
13223;DHT22;6676;45.192;5.722;2022-12-24T09:36:44;12.50;99.90
13223;DHT22;6676;45.192;5.722;2022-12-24T09:39:35;12.50;99.90
13223;DHT22;6676;45.192;5.722;2022-12-24T09:45:12;12.60;99.90
13223;DHT22;6676;45.192;5.722;2022-12-24T09:50:45;12.60;99.90
13223;DHT22;6676;45.192;5.722;2022-12-24T09:56:22;12.70;99.90
13223;DHT22;6676;45.192;5.722;2022-12-24T09:59:16;12.80;99.90
13223;DHT22;6676;45.192;5.722;2022-12-24T10:04:49;12.90;99.90
13223;DHT22;6676;45.192;5.722;2022-12-24T10:10:28;13.00;99.90
13223;DHT22;6676;45.192;5.722;2022-12-24T10:16:02;13.10;99.90
13223;DHT22;6676;45.192;5.722;2022-12-24T10:19:00;13.10;99.90
13223;DHT22;6676;45.192;5.722;2022-12-24T10:24:38;13.20;99.90
13223;DHT22;6676;45.192;5.722;2022-12-24T10:27:34;13.20;99.90
13223;DHT22;6676;45.192;5.722;2022-12-24T10:30:26;13.20;99.90
13223;DHT22;6676;45.192;5.722;2022-12-24T10:33:22;13.20;99.90
13223;DHT22;6676;45.192;5.722;2022-12-24T10:36:15;13.30;99.90
13223;DHT22;6676;45.192;5.722;2022-12-24T10:39:11;13.30;99.90
13223;DHT22;6676;45.192;5.722;2022-12-24T10:42:05;13.30;99.90
13223;DHT22;6676;45.192;5.722;2022-12-24T10:45:00;13.30;99.90
13223;DHT22;6676;45.192;5.722;2022-12-24T10:50:33;13.40;99.90
13223;DHT22;6676;45.192;5.722;2022-12-24T10:53:30;13.40;99.90
13223;DHT22;6676;45.192;5.722;2022-12-24T10:56:21;13.40;99.90
13223;DHT22;6676;45.192;5.722;2022-12-24T10:59:25;13.50;99.90
13223;DHT22;6676;45.192;5.722;2022-12-24T11:02:27;13.60;99.90
13223;DHT22;6676;45.192;5.722;2022-12-24T11:05:30;13.60;99.90
13223;DHT22;6676;45.192;5.722;2022-12-24T11:08:22;13.70;99.90
13223;DHT22;6676;45.192;5.722;2022-12-24T11:11:17;13.80;99.90
13223;DHT22;6676;45.192;5.722;2022-12-24T11:14:14;13.80;99.90
13223;DHT22;6676;45.192;5.722;2022-12-24T11:17:10;13.90;99.90
13223;DHT22;6676;45.192;5.722;2022-12-24T11:22:42;14.00;99.90
13223;DHT22;6676;45.192;5.722;2022-12-24T11:25:37;14.10;99.90
13223;DHT22;6676;45.192;5.722;2022-12-24T11:28:30;14.10;99.90
13223;DHT22;6676;45.192;5.722;2022-12-24T11:31:24;14.20;99.90
13223;DHT22;6676;45.192;5.722;2022-12-24T11:34:24;14.30;99.90
13223;DHT22;6676;45.192;5.722;2022-12-24T11:37:19;14.20;99.90
13223;DHT22;6676;45.192;5.722;2022-12-24T11:40:21;14.20;99.90
13223;DHT22;6676;45.192;5.722;2022-12-24T11:46:01;14.10;99.90
13223;DHT22;6676;45.192;5.722;2022-12-24T11:49:12;14.10;99.90
13223;DHT22;6676;45.192;5.722;2022-12-24T11:55:11;14.10;99.90
13223;DHT22;6676;45.192;5.722;2022-12-24T11:58:10;14.10;99.90
13223;DHT22;6676;45.192;5.722;2022-12-24T12:01:08;14.10;99.90
13223;DHT22;6676;45.192;5.722;2022-12-24T12:03:59;14.20;99.90
13223;DHT22;6676;45.192;5.722;2022-12-24T12:06:55;14.30;99.90
13223;DHT22;6676;45.192;5.722;2022-12-24T12:09:50;14.40;99.90
13223;DHT22;6676;45.192;5.722;2022-12-24T12:15:26;14.30;99.90
13223;DHT22;6676;45.192;5.722;2022-12-24T12:21:02;14.40;99.90
13223;DHT22;6676;45.192;5.722;2022-12-24T12:23:57;14.50;99.90
13223;DHT22;6676;45.192;5.722;2022-12-24T12:26:53;14.50;99.90
13223;DHT22;6676;45.192;5.722;2022-12-24T12:32:30;14.50;99.90
13223;DHT22;6676;45.192;5.722;2022-12-24T12:41:01;14.50;99.90
13223;DHT22;6676;45.192;5.722;2022-12-24T12:46:42;14.60;99.90
13223;DHT22;6676;45.192;5.722;2022-12-24T12:49:38;14.60;99.90
13223;DHT22;6676;45.192;5.722;2022-12-24T12:52:37;14.70;99.90
13223;DHT22;6676;45.192;5.722;2022-12-24T12:55:37;14.70;99.90
13223;DHT22;6676;45.192;5.722;2022-12-24T12:58:31;14.80;99.90
13223;DHT22;6676;45.192;5.722;2022-12-24T13:08:11;14.80;99.90
13223;DHT22;6676;45.192;5.722;2022-12-24T13:11:16;14.80;99.90
13223;DHT22;6676;45.192;5.722;2022-12-24T13:20:58;15.00;99.90
13223;DHT22;6676;45.192;5.722;2022-12-24T13:23:50;15.00;99.90
13223;DHT22;6676;45.192;5.722;2022-12-24T13:26:41;15.10;99.90
13223;DHT22;6676;45.192;5.722;2022-12-24T13:29:50;15.10;99.90
13223;DHT22;6676;45.192;5.722;2022-12-24T13:32:50;15.20;99.90
13223;DHT22;6676;45.192;5.722;2022-12-24T13:36:01;15.20;99.90
13223;DHT22;6676;45.192;5.722;2022-12-24T13:41:56;15.10;99.90
13223;DHT22;6676;45.192;5.722;2022-12-24T13:44:47;15.10;99.90
13223;DHT22;6676;45.192;5.722;2022-12-24T13:47:40;15.20;99.90
13223;DHT22;6676;45.192;5.722;2022-12-24T13:50:37;15.20;99.90
13223;DHT22;6676;45.192;5.722;2022-12-24T13:53:32;15.20;99.90
13223;DHT22;6676;45.192;5.722;2022-12-24T13:56:26;15.30;99.90
13223;DHT22;6676;45.192;5.722;2022-12-24T13:59:25;15.30;99.90
13223;DHT22;6676;45.192;5.722;2022-12-24T14:02:20;15.40;99.90
13223;DHT22;6676;45.192;5.722;2022-12-24T14:05:20;15.40;99.90
13223;DHT22;6676;45.192;5.722;2022-12-24T14:11:01;15.50;99.90
13223;DHT22;6676;45.192;5.722;2022-12-24T14:14:26;15.50;99.90
13223;DHT22;6676;45.192;5.722;2022-12-24T14:17:23;15.50;99.90
13223;DHT22;6676;45.192;5.722;2022-12-24T14:20:15;15.50;99.90
13223;DHT22;6676;45.192;5.722;2022-12-24T14:25:46;15.50;99.90
13223;DHT22;6676;45.192;5.722;2022-12-24T14:31:18;15.40;99.90
13223;DHT22;6676;45.192;5.722;2022-12-24T14:36:51;15.40;99.90
13223;DHT22;6676;45.192;5.722;2022-12-24T14:39:47;15.40;99.90
13223;DHT22;6676;45.192;5.722;2022-12-24T14:42:43;15.30;99.90
13223;DHT22;6676;45.192;5.722;2022-12-24T14:51:03;15.30;99.90
13223;DHT22;6676;45.192;5.722;2022-12-24T14:54:04;15.20;99.90
13223;DHT22;6676;45.192;5.722;2022-12-24T14:57:19;15.10;99.90
13223;DHT22;6676;45.192;5.722;2022-12-24T15:03:13;14.90;99.90
13223;DHT22;6676;45.192;5.722;2022-12-24T15:06:07;14.90;99.90
13223;DHT22;6676;45.192;5.722;2022-12-24T15:09:01;14.80;99.90
13223;DHT22;6676;45.192;5.722;2022-12-24T15:11:54;14.70;99.90
13223;DHT22;6676;45.192;5.722;2022-12-24T15:17:26;14.60;99.90
13223;DHT22;6676;45.192;5.722;2022-12-24T15:20:20;14.60;99.90
13223;DHT22;6676;45.192;5.722;2022-12-24T15:23:19;14.50;99.90
13223;DHT22;6676;45.192;5.722;2022-12-24T15:28:56;14.40;99.90
13223;DHT22;6676;45.192;5.722;2022-12-24T15:31:53;14.40;99.90
13223;DHT22;6676;45.192;5.722;2022-12-24T15:34:46;14.30;99.90
13223;DHT22;6676;45.192;5.722;2022-12-24T15:37:39;14.20;99.90
13223;DHT22;6676;45.192;5.722;2022-12-24T15:40:32;14.20;99.90
13223;DHT22;6676;45.192;5.722;2022-12-24T15:43:24;14.10;99.90
13223;DHT22;6676;45.192;5.722;2022-12-24T15:46:21;14.10;99.90
13223;DHT22;6676;45.192;5.722;2022-12-24T15:52:01;13.90;99.90
13223;DHT22;6676;45.192;5.722;2022-12-24T15:54:53;13.90;99.90
13223;DHT22;6676;45.192;5.722;2022-12-24T15:57:46;13.80;99.90
13223;DHT22;6676;45.192;5.722;2022-12-24T16:00:38;13.80;99.90
13223;DHT22;6676;45.192;5.722;2022-12-24T16:03:32;13.70;99.90
13223;DHT22;6676;45.192;5.722;2022-12-24T16:06:24;13.70;99.90
13223;DHT22;6676;45.192;5.722;2022-12-24T16:09:41;13.60;99.90
13223;DHT22;6676;45.192;5.722;2022-12-24T16:12:42;13.50;99.90
13223;DHT22;6676;45.192;5.722;2022-12-24T16:15:33;13.50;99.90
13223;DHT22;6676;45.192;5.722;2022-12-24T16:18:27;13.40;99.90
13223;DHT22;6676;45.192;5.722;2022-12-24T16:21:23;13.30;99.90
13223;DHT22;6676;45.192;5.722;2022-12-24T16:26:53;13.20;99.90
13223;DHT22;6676;45.192;5.722;2022-12-24T16:29:45;13.10;99.90
13223;DHT22;6676;45.192;5.722;2022-12-24T16:32:36;13.10;99.90
13223;DHT22;6676;45.192;5.722;2022-12-24T16:35:30;13.00;99.90
13223;DHT22;6676;45.192;5.722;2022-12-24T16:41:05;13.00;99.90
13223;DHT22;6676;45.192;5.722;2022-12-24T16:59:41;12.60;99.90
13223;DHT22;6676;45.192;5.722;2022-12-24T17:02:32;12.60;99.90
13223;DHT22;6676;45.192;5.722;2022-12-24T17:05:24;12.60;99.90
13223;DHT22;6676;45.192;5.722;2022-12-24T17:08:16;12.60;99.90
13223;DHT22;6676;45.192;5.722;2022-12-24T17:11:07;12.60;99.90
13223;DHT22;6676;45.192;5.722;2022-12-24T17:14:00;12.60;99.90
13223;DHT22;6676;45.192;5.722;2022-12-24T17:16:53;12.50;99.90
13223;DHT22;6676;45.192;5.722;2022-12-24T17:19:45;12.50;99.90
13223;DHT22;6676;45.192;5.722;2022-12-24T17:22:37;12.50;99.90
13223;DHT22;6676;45.192;5.722;2022-12-24T17:25:28;12.40;99.90
13223;DHT22;6676;45.192;5.722;2022-12-24T17:28:20;12.40;99.90
13223;DHT22;6676;45.192;5.722;2022-12-24T17:31:13;12.30;99.90
13223;DHT22;6676;45.192;5.722;2022-12-24T17:36:45;12.30;99.90
13223;DHT22;6676;45.192;5.722;2022-12-24T17:39:36;12.30;99.90
13223;DHT22;6676;45.192;5.722;2022-12-24T17:42:27;12.30;99.90
13223;DHT22;6676;45.192;5.722;2022-12-24T17:45:19;12.30;99.90
13223;DHT22;6676;45.192;5.722;2022-12-24T17:50:49;12.20;99.90
13223;DHT22;6676;45.192;5.722;2022-12-24T17:56:19;12.10;99.90
13223;DHT22;6676;45.192;5.722;2022-12-24T18:01:49;12.00;99.90
13223;DHT22;6676;45.192;5.722;2022-12-24T18:04:41;12.00;99.90
13223;DHT22;6676;45.192;5.722;2022-12-24T18:07:32;11.90;99.90
13223;DHT22;6676;45.192;5.722;2022-12-24T18:10:24;11.90;99.90
13223;DHT22;6676;45.192;5.722;2022-12-24T18:15:56;11.90;99.90
13223;DHT22;6676;45.192;5.722;2022-12-24T18:21:28;11.90;99.90
13223;DHT22;6676;45.192;5.722;2022-12-24T18:27:03;11.80;99.90
13223;DHT22;6676;45.192;5.722;2022-12-24T18:29:54;11.80;99.90
13223;DHT22;6676;45.192;5.722;2022-12-24T18:35:26;11.80;99.90
13223;DHT22;6676;45.192;5.722;2022-12-24T18:38:18;11.70;99.90
13223;DHT22;6676;45.192;5.722;2022-12-24T18:41:10;11.70;99.90
13223;DHT22;6676;45.192;5.722;2022-12-24T18:44:02;11.70;99.90
13223;DHT22;6676;45.192;5.722;2022-12-24T18:46:53;11.70;99.90
13223;DHT22;6676;45.192;5.722;2022-12-24T18:52:25;11.60;99.90
13223;DHT22;6676;45.192;5.722;2022-12-24T18:55:18;11.60;99.90
13223;DHT22;6676;45.192;5.722;2022-12-24T19:00:48;11.60;99.90
13223;DHT22;6676;45.192;5.722;2022-12-24T19:06:21;11.50;99.90
13223;DHT22;6676;45.192;5.722;2022-12-24T19:09:13;11.50;99.90
13223;DHT22;6676;45.192;5.722;2022-12-24T19:12:05;11.50;99.90
13223;DHT22;6676;45.192;5.722;2022-12-24T19:17:35;11.40;99.90
13223;DHT22;6676;45.192;5.722;2022-12-24T19:20:27;11.30;99.90
13223;DHT22;6676;45.192;5.722;2022-12-24T19:23:18;11.30;99.90
13223;DHT22;6676;45.192;5.722;2022-12-24T19:26:10;11.20;99.90
13223;DHT22;6676;45.192;5.722;2022-12-24T19:29:01;11.20;99.90
13223;DHT22;6676;45.192;5.722;2022-12-24T19:31:53;11.20;99.90
13223;DHT22;6676;45.192;5.722;2022-12-24T19:34:44;11.20;99.90
13223;DHT22;6676;45.192;5.722;2022-12-24T19:37:35;11.20;99.90
13223;DHT22;6676;45.192;5.722;2022-12-24T19:40:28;11.10;99.90
13223;DHT22;6676;45.192;5.722;2022-12-24T19:43:19;11.10;99.90
13223;DHT22;6676;45.192;5.722;2022-12-24T19:46:12;11.10;99.90
13223;DHT22;6676;45.192;5.722;2022-12-24T19:49:05;11.10;99.90
13223;DHT22;6676;45.192;5.722;2022-12-24T19:51:57;11.00;99.90
13223;DHT22;6676;45.192;5.722;2022-12-24T19:54:48;11.00;99.90
13223;DHT22;6676;45.192;5.722;2022-12-24T19:57:40;11.00;99.90
13223;DHT22;6676;45.192;5.722;2022-12-24T20:00:32;11.00;99.90
13223;DHT22;6676;45.192;5.722;2022-12-24T20:03:23;11.00;99.90
13223;DHT22;6676;45.192;5.722;2022-12-24T20:06:16;11.00;99.90
13223;DHT22;6676;45.192;5.722;2022-12-24T20:09:09;11.00;99.90
13223;DHT22;6676;45.192;5.722;2022-12-24T20:12:02;10.90;99.90
13223;DHT22;6676;45.192;5.722;2022-12-24T20:14:55;10.90;99.90
13223;DHT22;6676;45.192;5.722;2022-12-24T20:17:47;10.90;99.90
13223;DHT22;6676;45.192;5.722;2022-12-24T20:23:24;10.90;99.90
13223;DHT22;6676;45.192;5.722;2022-12-24T20:26:18;10.90;99.90
13223;DHT22;6676;45.192;5.722;2022-12-24T20:29:11;10.90;99.90
13223;DHT22;6676;45.192;5.722;2022-12-24T20:32:02;10.90;99.90
13223;DHT22;6676;45.192;5.722;2022-12-24T20:34:55;10.80;99.90
13223;DHT22;6676;45.192;5.722;2022-12-24T20:37:46;10.80;99.90
13223;DHT22;6676;45.192;5.722;2022-12-24T20:40:40;10.80;99.90
13223;DHT22;6676;45.192;5.722;2022-12-24T20:43:33;10.80;99.90
13223;DHT22;6676;45.192;5.722;2022-12-24T20:46:26;10.70;99.90
13223;DHT22;6676;45.192;5.722;2022-12-24T20:49:19;10.70;99.90
13223;DHT22;6676;45.192;5.722;2022-12-24T20:52:11;10.70;99.90
13223;DHT22;6676;45.192;5.722;2022-12-24T20:55:03;10.70;99.90
13223;DHT22;6676;45.192;5.722;2022-12-24T21:00:35;10.70;99.90
13223;DHT22;6676;45.192;5.722;2022-12-24T21:03:26;10.70;99.90
13223;DHT22;6676;45.192;5.722;2022-12-24T21:06:18;10.60;99.90
13223;DHT22;6676;45.192;5.722;2022-12-24T21:09:09;10.60;99.90
13223;DHT22;6676;45.192;5.722;2022-12-24T21:12:02;10.50;99.90
13223;DHT22;6676;45.192;5.722;2022-12-24T21:15:11;10.50;99.90
13223;DHT22;6676;45.192;5.722;2022-12-24T21:18:03;10.50;99.90
13223;DHT22;6676;45.192;5.722;2022-12-24T21:20:56;10.40;99.90
13223;DHT22;6676;45.192;5.722;2022-12-24T21:26:27;10.20;99.90
13223;DHT22;6676;45.192;5.722;2022-12-24T21:29:18;10.20;99.90
13223;DHT22;6676;45.192;5.722;2022-12-24T21:32:10;10.20;99.90
13223;DHT22;6676;45.192;5.722;2022-12-24T21:35:01;10.20;99.90
13223;DHT22;6676;45.192;5.722;2022-12-24T21:37:53;10.20;99.90
13223;DHT22;6676;45.192;5.722;2022-12-24T21:40:44;10.20;99.90
13223;DHT22;6676;45.192;5.722;2022-12-24T21:43:38;10.20;99.90
13223;DHT22;6676;45.192;5.722;2022-12-24T21:46:29;10.20;99.90
13223;DHT22;6676;45.192;5.722;2022-12-24T21:49:21;10.20;99.90
13223;DHT22;6676;45.192;5.722;2022-12-24T21:52:30;10.20;99.90
13223;DHT22;6676;45.192;5.722;2022-12-24T21:58:01;10.20;99.90
13223;DHT22;6676;45.192;5.722;2022-12-24T22:00:52;10.20;99.90
13223;DHT22;6676;45.192;5.722;2022-12-24T22:06:23;10.10;99.90
13223;DHT22;6676;45.192;5.722;2022-12-24T22:09:32;10.10;99.90
13223;DHT22;6676;45.192;5.722;2022-12-24T22:12:41;10.10;99.90
13223;DHT22;6676;45.192;5.722;2022-12-24T22:15:32;10.00;99.90
13223;DHT22;6676;45.192;5.722;2022-12-24T22:18:25;10.00;99.90
13223;DHT22;6676;45.192;5.722;2022-12-24T22:21:17;10.00;99.90
13223;DHT22;6676;45.192;5.722;2022-12-24T22:24:09;10.10;99.90
13223;DHT22;6676;45.192;5.722;2022-12-24T22:27:00;10.00;99.90
13223;DHT22;6676;45.192;5.722;2022-12-24T22:29:52;10.00;99.90
13223;DHT22;6676;45.192;5.722;2022-12-24T22:32:44;10.00;99.90
13223;DHT22;6676;45.192;5.722;2022-12-24T22:35:37;10.00;99.90
13223;DHT22;6676;45.192;5.722;2022-12-24T22:41:09;9.90;99.90
13223;DHT22;6676;45.192;5.722;2022-12-24T22:44:00;9.90;99.90
13223;DHT22;6676;45.192;5.722;2022-12-24T22:49:35;9.80;99.90
13223;DHT22;6676;45.192;5.722;2022-12-24T22:52:26;9.80;99.90
13223;DHT22;6676;45.192;5.722;2022-12-24T22:55:17;9.70;99.90
13223;DHT22;6676;45.192;5.722;2022-12-24T22:58:09;9.60;99.90
13223;DHT22;6676;45.192;5.722;2022-12-24T23:01:00;9.60;99.90
13223;DHT22;6676;45.192;5.722;2022-12-24T23:03:53;9.60;99.90
13223;DHT22;6676;45.192;5.722;2022-12-24T23:06:44;9.60;99.90
13223;DHT22;6676;45.192;5.722;2022-12-24T23:09:36;9.50;99.90
13223;DHT22;6676;45.192;5.722;2022-12-24T23:12:27;9.50;99.90
13223;DHT22;6676;45.192;5.722;2022-12-24T23:15:37;9.60;99.90
13223;DHT22;6676;45.192;5.722;2022-12-24T23:18:29;9.60;99.90
13223;DHT22;6676;45.192;5.722;2022-12-24T23:21:20;9.60;99.90